createdAt,value
2023-02-23T00:00:39.552Z,23.05
2023-02-23T00:03:10.017Z,23.11
2023-02-23T00:05:37.766Z,23.09
2023-02-23T00:08:08.267Z,23.08
2023-02-23T00:10:35.743Z,23.07
2023-02-23T00:13:05.650Z,23.07
2023-02-23T00:15:33.045Z,23.08
2023-02-23T00:18:04.621Z,23.06
2023-02-23T00:20:44.446Z,23.08
2023-02-23T00:23:12.709Z,23.03
2023-02-23T00:25:45.647Z,23.08
2023-02-23T00:28:16.469Z,23.04
2023-02-23T00:30:48.847Z,23.03
2023-02-23T00:33:23.255Z,23.00
2023-02-23T00:35:55.516Z,23.02
2023-02-23T00:38:25.899Z,23.08
2023-02-23T00:40:54.715Z,23.04
2023-02-23T00:43:25.193Z,23.00
2023-02-23T00:45:55.750Z,23.01
2023-02-23T00:48:29.205Z,23.05
2023-02-23T00:51:04.623Z,23.04
2023-02-23T00:53:33.405Z,22.99
2023-02-23T00:56:11.292Z,22.99
2023-02-23T00:58:41.510Z,23.07
2023-02-23T01:01:15.528Z,23.02
2023-02-23T01:03:43.549Z,23.10
2023-02-23T01:06:13.485Z,23.12
2023-02-23T01:08:43.918Z,23.09
2023-02-23T01:11:17.475Z,23.00
2023-02-23T01:13:50.908Z,23.08
2023-02-23T01:16:27.961Z,23.07
2023-02-23T01:19:00.438Z,23.11
2023-02-23T01:21:42.406Z,23.07
2023-02-23T01:24:15.957Z,23.04
2023-02-23T01:26:47.407Z,23.06
2023-02-23T01:29:18.915Z,23.01
2023-02-23T01:31:52.296Z,23.01
2023-02-23T01:34:24.065Z,23.00
2023-02-23T01:36:51.472Z,23.00
2023-02-23T01:39:20.828Z,22.97
2023-02-23T01:41:51.880Z,22.94
2023-02-23T01:44:19.341Z,22.96
2023-02-23T01:46:53.354Z,22.97
2023-02-23T01:49:28.411Z,23.01
2023-02-23T01:52:06.712Z,22.97
2023-02-23T01:54:51.932Z,22.92
2023-02-23T01:57:24.906Z,22.96
2023-02-23T01:59:55.000Z,23.08
2023-02-23T02:02:33.392Z,23.03
2023-02-23T02:05:13.343Z,23.01
2023-02-23T02:07:48.962Z,22.99
2023-02-23T02:10:39.709Z,23.07
2023-02-23T02:13:10.438Z,23.06
2023-02-23T02:15:58.888Z,23.18
2023-02-23T02:18:41.668Z,23.25
2023-02-23T02:21:14.824Z,23.26
2023-02-23T02:23:51.137Z,23.30
2023-02-23T02:26:33.587Z,23.32
2023-02-23T02:29:42.168Z,23.38
2023-02-23T02:32:34.709Z,23.43
2023-02-23T02:35:05.752Z,23.43
2023-02-23T02:37:56.923Z,23.51
2023-02-23T02:40:53.182Z,23.44
2023-02-23T02:43:36.176Z,23.48
2023-02-23T02:46:12.261Z,23.44
2023-02-23T02:48:57.656Z,23.53
2023-02-23T02:51:35.106Z,23.47
2023-02-23T02:54:36.657Z,23.42
2023-02-23T02:57:15.625Z,23.53
2023-02-23T03:00:10.276Z,23.49
2023-02-23T03:02:58.839Z,23.43
2023-02-23T03:05:54.265Z,23.42
2023-02-23T03:08:51.958Z,23.54
2023-02-23T03:11:38.258Z,23.40
2023-02-23T03:14:35.636Z,23.53
2023-02-23T03:18:01.536Z,23.51
2023-02-23T03:21:04.318Z,23.46
2023-02-23T03:24:02.971Z,23.48
2023-02-23T03:27:17.850Z,23.49
2023-02-23T03:30:36.289Z,23.52
2023-02-23T03:33:37.817Z,23.48
2023-02-23T03:36:32.403Z,23.42
2023-02-23T03:39:23.380Z,23.39
2023-02-23T03:42:12.526Z,23.28
2023-02-23T03:45:04.027Z,23.24
2023-02-23T03:47:54.202Z,23.17
2023-02-23T03:50:49.385Z,23.15
2023-02-23T03:53:53.557Z,23.07
2023-02-23T03:56:46.607Z,23.04
2023-02-23T03:59:37.306Z,23.16
2023-02-23T04:02:29.028Z,23.11
2023-02-23T04:05:19.205Z,23.12
2023-02-23T04:08:11.119Z,23.05
2023-02-23T04:11:04.932Z,22.99
2023-02-23T04:13:40.572Z,23.10
2023-02-23T04:16:11.481Z,23.24
2023-02-23T04:18:45.185Z,23.11
2023-02-23T04:21:15.229Z,23.11
2023-02-23T04:23:48.490Z,23.14
2023-02-23T04:26:21.184Z,23.04
2023-02-23T04:28:54.527Z,23.23
2023-02-23T04:31:25.361Z,23.13
2023-02-23T04:33:55.716Z,23.07
2023-02-23T04:36:26.930Z,23.13
2023-02-23T04:38:57.690Z,23.16
2023-02-23T04:41:28.560Z,23.15
2023-02-23T04:43:59.110Z,23.12
2023-02-23T04:46:30.560Z,23.18
2023-02-23T04:49:01.047Z,23.11
2023-02-23T04:51:36.649Z,23.04
2023-02-23T04:54:05.118Z,23.03
2023-02-23T04:56:35.528Z,22.97
2023-02-23T04:59:05.313Z,22.98
2023-02-23T05:01:32.995Z,22.97
2023-02-23T05:04:02.919Z,22.97
2023-02-23T05:06:30.970Z,23.03
2023-02-23T05:09:07.237Z,23.06
2023-02-23T05:11:38.101Z,22.97
2023-02-23T05:14:05.611Z,23.10
2023-02-23T05:16:36.028Z,23.15
2023-02-23T05:19:03.651Z,23.14
2023-02-23T05:21:31.544Z,23.07
2023-02-23T05:24:00.260Z,23.18
2023-02-23T05:26:28.009Z,23.10
2023-02-23T05:28:58.225Z,23.03
2023-02-23T05:31:28.924Z,22.91
2023-02-23T05:33:59.242Z,23.12
2023-02-23T05:36:29.054Z,23.04
2023-02-23T05:39:00.441Z,23.12
2023-02-23T05:41:30.513Z,23.11
2023-02-23T05:44:01.120Z,23.09
2023-02-23T05:46:31.933Z,22.95
2023-02-23T05:49:01.307Z,22.97
2023-02-23T05:51:34.903Z,22.96
2023-02-23T05:54:05.340Z,23.03
2023-02-23T05:56:32.715Z,23.01
2023-02-23T05:59:07.688Z,22.96
2023-02-23T06:01:38.649Z,22.97
2023-02-23T06:04:09.166Z,22.94
2023-02-23T06:06:40.021Z,23.00
2023-02-23T06:09:10.585Z,23.05
2023-02-23T06:11:43.060Z,23.07
2023-02-23T06:14:10.638Z,23.02
2023-02-23T06:16:45.183Z,23.01
2023-02-23T06:19:16.118Z,23.09
2023-02-23T06:21:44.691Z,23.16
2023-02-23T06:24:12.343Z,23.13
2023-02-23T06:26:48.737Z,23.13
2023-02-23T06:29:17.073Z,23.08
2023-02-23T06:31:52.810Z,23.10
2023-02-23T06:34:21.282Z,23.13
2023-02-23T06:36:52.944Z,23.09
2023-02-23T06:39:28.528Z,23.09
2023-02-23T06:42:01.777Z,23.12
2023-02-23T06:44:35.342Z,23.21
2023-02-23T06:47:06.149Z,23.23
2023-02-23T06:49:37.252Z,23.21
2023-02-23T06:52:04.710Z,23.10
2023-02-23T06:54:34.143Z,22.85
2023-02-23T06:57:10.717Z,22.60
2023-02-23T06:59:42.878Z,22.72
2023-02-23T07:02:17.122Z,22.77
2023-02-23T07:04:47.535Z,22.93
2023-02-23T07:07:22.720Z,23.00
2023-02-23T07:09:50.448Z,22.99
2023-02-23T07:12:25.593Z,23.13
2023-02-23T07:14:55.310Z,23.08
2023-02-23T07:17:30.772Z,23.25
2023-02-23T07:19:58.515Z,23.23
2023-02-23T07:22:30.388Z,23.28
2023-02-23T07:25:04.974Z,23.41
2023-02-23T07:27:39.035Z,23.32
2023-02-23T07:30:12.536Z,23.48
2023-02-23T07:32:54.468Z,23.44
2023-02-23T07:35:24.947Z,23.57
2023-02-23T07:37:55.967Z,23.60
2023-02-23T07:40:34.510Z,23.55
2023-02-23T07:43:08.044Z,23.53
2023-02-23T07:45:49.270Z,23.32
2023-02-23T07:48:29.011Z,23.34
2023-02-23T07:51:10.452Z,23.29
2023-02-23T07:53:45.033Z,23.37
2023-02-23T07:56:25.960Z,23.41
2023-02-23T07:59:09.913Z,23.42
2023-02-23T08:01:46.027Z,23.32
2023-02-23T08:04:26.675Z,23.61
2023-02-23T08:06:58.540Z,23.58
2023-02-23T08:09:32.716Z,23.59
2023-02-23T08:12:05.456Z,23.56
2023-02-23T08:14:33.403Z,23.53
2023-02-23T08:17:06.697Z,23.44
2023-02-23T08:19:37.601Z,23.56
2023-02-23T08:22:11.499Z,23.68
2023-02-23T08:24:43.030Z,23.69
2023-02-23T08:27:15.464Z,23.63
2023-02-23T08:29:49.278Z,23.56
2023-02-23T08:32:22.917Z,23.48
2023-02-23T08:34:55.075Z,23.44
2023-02-23T08:37:25.521Z,23.54
2023-02-23T08:39:57.044Z,23.64
2023-02-23T08:42:28.097Z,23.60
2023-02-23T08:44:55.645Z,23.57
2023-02-23T08:47:30.150Z,23.69
2023-02-23T08:50:03.682Z,23.66
2023-02-23T08:52:34.161Z,23.64
2023-02-23T08:55:06.072Z,23.60
2023-02-23T08:57:35.455Z,23.69
2023-02-23T09:00:14.351Z,23.67
2023-02-23T09:02:48.571Z,23.67
2023-02-23T09:05:21.903Z,23.67
2023-02-23T09:07:52.677Z,23.63
2023-02-23T09:10:25.082Z,23.77
2023-02-23T09:12:58.158Z,23.62
2023-02-23T09:15:28.083Z,23.69
2023-02-23T09:18:03.518Z,23.69
2023-02-23T09:20:33.870Z,23.66
2023-02-23T09:23:10.335Z,23.67
2023-02-23T09:25:45.290Z,23.66
2023-02-23T09:28:18.672Z,23.59
2023-02-23T09:30:49.442Z,23.57
2023-02-23T09:33:26.462Z,23.62
2023-02-23T09:36:02.573Z,23.53
2023-02-23T09:38:38.531Z,23.52
2023-02-23T09:41:31.197Z,23.57
2023-02-23T09:44:26.523Z,23.59
2023-02-23T09:47:21.800Z,23.57
2023-02-23T09:50:00.349Z,23.54
2023-02-23T09:52:42.635Z,23.52
2023-02-23T09:55:21.834Z,23.61
2023-02-23T09:57:55.033Z,23.68
2023-02-23T10:00:31.000Z,23.59
2023-02-23T10:03:04.405Z,23.54
2023-02-23T10:05:38.260Z,23.58
2023-02-23T10:08:37.280Z,23.57
2023-02-23T10:11:43.857Z,23.60
2023-02-23T10:14:33.217Z,23.58
2023-02-23T10:17:55.382Z,23.64
2023-02-23T10:20:50.966Z,23.58
2023-02-23T10:23:33.829Z,23.61
2023-02-23T10:26:15.827Z,23.52
2023-02-23T10:28:46.985Z,23.68
2023-02-23T10:31:24.311Z,23.59
2023-02-23T10:33:57.476Z,23.64
2023-02-23T10:36:46.359Z,23.58
2023-02-23T10:39:17.043Z,23.62
2023-02-23T10:41:49.404Z,23.64
2023-02-23T10:44:27.504Z,23.59
2023-02-23T10:47:03.481Z,23.63
2023-02-23T10:49:48.307Z,23.60
2023-02-23T10:52:42.649Z,23.72
2023-02-23T10:55:28.831Z,23.74
2023-02-23T10:58:19.431Z,23.91
2023-02-23T11:00:53.344Z,23.82
2023-02-23T11:03:43.252Z,23.71
2023-02-23T11:06:35.235Z,23.92
2023-02-23T11:09:45.051Z,24.01
2023-02-23T11:12:25.493Z,24.06
2023-02-23T11:14:55.718Z,24.02
2023-02-23T11:17:37.953Z,23.95
2023-02-23T11:20:28.421Z,23.94
2023-02-23T11:23:13.983Z,23.85
2023-02-23T11:25:45.252Z,23.84
2023-02-23T11:28:24.925Z,23.92
2023-02-23T11:30:55.932Z,23.90
2023-02-23T11:33:36.264Z,23.92
2023-02-23T11:36:24.396Z,23.96
2023-02-23T11:39:16.616Z,24.07
2023-02-23T11:41:47.892Z,24.01
2023-02-23T11:44:26.031Z,23.96
2023-02-23T11:46:54.045Z,23.98
2023-02-23T11:49:33.355Z,23.90
2023-02-23T11:52:03.733Z,23.95
2023-02-23T11:54:40.879Z,23.91
2023-02-23T11:57:25.326Z,23.87
2023-02-23T12:00:07.401Z,23.87
2023-02-23T12:02:51.201Z,23.97
2023-02-23T12:05:31.325Z,23.87
2023-02-23T12:08:16.853Z,23.88
2023-02-23T12:10:56.308Z,23.95
2023-02-23T12:13:38.517Z,23.87
2023-02-23T12:16:35.493Z,23.91
2023-02-23T12:19:12.551Z,23.98
2023-02-23T12:21:48.496Z,23.93
2023-02-23T12:24:45.641Z,24.01
2023-02-23T12:27:23.253Z,24.06
2023-02-23T12:29:59.308Z,24.03
2023-02-23T12:32:54.680Z,24.19
2023-02-23T12:35:51.611Z,24.14
2023-02-23T12:38:33.387Z,24.18
2023-02-23T12:41:14.953Z,24.21
2023-02-23T12:44:01.643Z,24.21
2023-02-23T12:46:48.444Z,24.31
2023-02-23T12:49:52.536Z,24.18
2023-02-23T12:52:33.897Z,24.19
2023-02-23T12:55:11.636Z,24.13
2023-02-23T12:57:55.011Z,24.11
2023-02-23T13:00:37.823Z,24.17
2023-02-23T13:03:27.002Z,24.08
2023-02-23T13:06:12.215Z,23.99
2023-02-23T13:09:17.442Z,23.97
2023-02-23T13:12:26.569Z,24.04
2023-02-23T13:15:08.201Z,24.04
2023-02-23T13:17:52.212Z,24.04
2023-02-23T13:20:56.443Z,24.01
2023-02-23T13:23:32.478Z,24.05
2023-02-23T13:26:17.585Z,24.03
2023-02-23T13:29:10.896Z,24.07
2023-02-23T13:31:46.788Z,24.02
2023-02-23T13:34:26.439Z,23.99
2023-02-23T13:36:57.105Z,23.99
2023-02-23T13:39:47.698Z,24.02
2023-02-23T13:42:17.911Z,23.96
2023-02-23T13:45:07.156Z,23.93
2023-02-23T13:47:55.590Z,23.96
2023-02-23T13:50:33.951Z,23.98
2023-02-23T13:53:05.421Z,23.94
2023-02-23T13:55:51.264Z,23.96
2023-02-23T13:58:30.607Z,23.92
2023-02-23T14:01:08.385Z,23.98
2023-02-23T14:04:01.231Z,23.94
2023-02-23T14:06:31.768Z,23.91
2023-02-23T14:09:15.593Z,23.89
2023-02-23T14:11:53.910Z,23.93
2023-02-23T14:14:30.460Z,23.98
2023-02-23T14:17:16.418Z,24.03
2023-02-23T14:20:09.846Z,23.90
2023-02-23T14:22:58.775Z,23.94
2023-02-23T14:25:36.570Z,23.86
2023-02-23T14:28:22.162Z,23.82
2023-02-23T14:31:20.524Z,23.84
2023-02-23T14:33:53.103Z,23.87
2023-02-23T14:36:32.589Z,23.82
2023-02-23T14:39:12.486Z,23.83
2023-02-23T14:41:51.476Z,23.82
2023-02-23T14:44:30.800Z,23.86
2023-02-23T14:47:27.904Z,23.87
2023-02-23T14:50:05.139Z,23.90
2023-02-23T14:52:42.144Z,23.93
2023-02-23T14:55:22.111Z,23.93
2023-02-23T14:57:54.315Z,24.01
2023-02-23T15:00:29.239Z,23.95
2023-02-23T15:03:03.020Z,23.97
2023-02-23T15:05:36.933Z,24.04
2023-02-23T15:08:07.842Z,23.96
2023-02-23T15:10:43.435Z,24.02
2023-02-23T15:13:21.509Z,24.00
2023-02-23T15:15:53.125Z,24.02
2023-02-23T15:18:38.546Z,23.92
2023-02-23T15:21:16.256Z,23.92
2023-02-23T15:23:53.128Z,23.83
2023-02-23T15:26:32.338Z,23.80
2023-02-23T15:29:14.805Z,23.91
2023-02-23T15:31:50.805Z,23.98
2023-02-23T15:34:26.584Z,23.91
2023-02-23T15:37:03.372Z,23.95
2023-02-23T15:39:41.842Z,24.05
2023-02-23T15:42:18.825Z,23.92
2023-02-23T15:44:46.825Z,23.82
2023-02-23T15:47:22.398Z,23.75
2023-02-23T15:50:31.165Z,23.83
2023-02-23T15:53:26.169Z,23.95
2023-02-23T15:56:03.030Z,23.86
2023-02-23T15:58:56.440Z,23.78
2023-02-23T16:01:33.688Z,23.88
2023-02-23T16:04:08.177Z,23.84
2023-02-23T16:06:52.784Z,23.86
2023-02-23T16:09:29.247Z,24.02
2023-02-23T16:12:00.065Z,23.92
2023-02-23T16:15:02.835Z,23.84
2023-02-23T16:17:46.187Z,23.80
2023-02-23T16:20:41.555Z,23.82
2023-02-23T16:23:34.454Z,23.79
2023-02-23T16:26:18.640Z,23.78
2023-02-23T16:28:54.062Z,23.80
2023-02-23T16:31:43.270Z,23.82
2023-02-23T16:34:25.802Z,23.99
2023-02-23T16:37:01.543Z,24.02
2023-02-23T16:39:36.284Z,24.09
2023-02-23T16:42:21.226Z,24.20
2023-02-23T16:44:58.612Z,24.17
2023-02-23T16:47:36.701Z,24.13
2023-02-23T16:50:21.116Z,24.11
2023-02-23T16:53:00.476Z,24.11
2023-02-23T16:55:39.295Z,24.12
2023-02-23T16:58:21.536Z,24.07
2023-02-23T17:00:51.973Z,23.95
2023-02-23T17:03:28.655Z,23.90
2023-02-23T17:05:59.508Z,23.94
2023-02-23T17:08:27.314Z,23.97
2023-02-23T17:11:01.826Z,24.15
2023-02-23T17:13:34.817Z,23.93
2023-02-23T17:16:07.074Z,23.91
2023-02-23T17:18:42.645Z,24.00
2023-02-23T17:21:14.929Z,24.05
2023-02-23T17:23:50.910Z,23.81
2023-02-23T17:26:24.328Z,23.77
2023-02-23T17:28:57.717Z,23.72
2023-02-23T17:31:33.493Z,23.84
2023-02-23T17:34:04.620Z,24.03
2023-02-23T17:36:37.571Z,24.04
2023-02-23T17:39:09.659Z,24.08
2023-02-23T17:41:38.356Z,24.04
2023-02-23T17:44:10.711Z,23.89
2023-02-23T17:46:46.193Z,24.08
2023-02-23T17:49:16.626Z,24.13
2023-02-23T17:51:51.336Z,24.05
2023-02-23T17:54:28.800Z,23.96
2023-02-23T17:57:03.882Z,23.99
2023-02-23T17:59:37.939Z,24.05
2023-02-23T18:02:20.834Z,23.98
2023-02-23T18:04:52.304Z,23.91
2023-02-23T18:07:22.027Z,23.84
2023-02-23T18:09:55.414Z,23.96
2023-02-23T18:12:22.954Z,23.95
2023-02-23T18:14:53.740Z,23.85
2023-02-23T18:17:23.715Z,23.81
2023-02-23T18:19:54.443Z,23.76
2023-02-23T18:22:24.928Z,23.65
2023-02-23T18:24:58.297Z,23.61
2023-02-23T18:27:31.976Z,23.58
2023-02-23T18:30:07.480Z,23.59
2023-02-23T18:32:35.218Z,23.53
2023-02-23T18:35:07.739Z,23.54
2023-02-23T18:37:38.912Z,23.53
2023-02-23T18:40:09.652Z,23.53
2023-02-23T18:42:42.088Z,23.49
2023-02-23T18:45:14.635Z,23.49
2023-02-23T18:47:45.001Z,23.51
2023-02-23T18:50:19.685Z,23.47
2023-02-23T18:52:53.182Z,23.53
2023-02-23T18:55:22.286Z,23.51
2023-02-23T18:57:59.156Z,23.51
2023-02-23T19:00:40.221Z,23.50
2023-02-23T19:03:12.860Z,23.48
2023-02-23T19:05:53.041Z,23.49
2023-02-23T19:08:23.373Z,23.49
2023-02-23T19:10:53.964Z,23.56
2023-02-23T19:13:22.293Z,23.51
2023-02-23T19:15:55.449Z,23.50
2023-02-23T19:18:29.060Z,23.47
2023-02-23T19:20:59.629Z,23.48
2023-02-23T19:23:31.266Z,23.47
2023-02-23T19:26:05.532Z,23.49
2023-02-23T19:28:38.828Z,23.62
2023-02-23T19:31:12.253Z,23.62
2023-02-23T19:33:40.884Z,23.59
2023-02-23T19:36:11.429Z,23.60
2023-02-23T19:38:45.754Z,23.55
2023-02-23T19:41:19.253Z,23.51
2023-02-23T19:43:51.915Z,23.61
2023-02-23T19:46:25.891Z,23.62
2023-02-23T19:48:56.769Z,23.65
2023-02-23T19:51:24.628Z,23.58
2023-02-23T19:53:57.223Z,23.59
2023-02-23T19:56:28.075Z,23.63
2023-02-23T19:59:02.049Z,23.59
2023-02-23T20:01:30.193Z,23.68
2023-02-23T20:04:06.594Z,23.68
2023-02-23T20:06:47.344Z,23.71
2023-02-23T20:09:19.205Z,23.73
2023-02-23T20:11:55.158Z,23.76
2023-02-23T20:14:29.706Z,23.60
2023-02-23T20:17:03.741Z,23.55
2023-02-23T20:19:35.021Z,23.66
2023-02-23T20:22:08.911Z,23.68
2023-02-23T20:24:39.514Z,23.54
2023-02-23T20:27:26.543Z,23.50
2023-02-23T20:30:02.732Z,23.45
2023-02-23T20:32:33.203Z,23.41
2023-02-23T20:35:03.864Z,23.45
2023-02-23T20:37:35.085Z,23.47
2023-02-23T20:40:20.105Z,23.49
2023-02-23T20:42:53.598Z,23.47
2023-02-23T20:45:27.312Z,23.49
2023-02-23T20:47:55.646Z,23.47
2023-02-23T20:50:33.902Z,23.49
2023-02-23T20:53:08.841Z,23.52
2023-02-23T20:55:38.586Z,23.51
2023-02-23T20:58:14.509Z,23.55
2023-02-23T21:00:49.035Z,23.56
2023-02-23T21:03:20.108Z,23.53
2023-02-23T21:05:51.692Z,23.45
2023-02-23T21:08:22.496Z,23.44
2023-02-23T21:10:50.404Z,23.47
2023-02-23T21:13:23.341Z,23.53
2023-02-23T21:16:02.170Z,23.51
2023-02-23T21:18:35.571Z,23.44
2023-02-23T21:21:09.994Z,23.42
2023-02-23T21:23:43.533Z,23.44
2023-02-23T21:26:15.369Z,23.49
2023-02-23T21:28:49.380Z,23.45
2023-02-23T21:31:18.262Z,23.51
2023-02-23T21:33:49.138Z,23.44
2023-02-23T21:36:22.599Z,23.50
2023-02-23T21:38:51.328Z,23.52
2023-02-23T21:41:22.595Z,23.58
2023-02-23T21:43:54.078Z,23.48
2023-02-23T21:46:25.669Z,23.62
2023-02-23T21:49:00.234Z,23.59
2023-02-23T21:51:36.469Z,23.62
2023-02-23T21:54:09.360Z,23.74
2023-02-23T21:56:39.717Z,23.75
2023-02-23T21:59:11.116Z,23.75
2023-02-23T22:01:46.165Z,23.82
2023-02-23T22:04:17.755Z,23.81
2023-02-23T22:06:51.109Z,23.86
2023-02-23T22:09:22.470Z,23.92
2023-02-23T22:11:50.175Z,23.83
2023-02-23T22:14:22.306Z,23.88
2023-02-23T22:16:54.494Z,23.90
2023-02-23T22:19:22.097Z,23.81
2023-02-23T22:21:49.467Z,23.87
2023-02-23T22:24:17.546Z,23.87
2023-02-23T22:26:54.518Z,23.71
2023-02-23T22:29:31.993Z,23.61
2023-02-23T22:32:04.729Z,23.46
2023-02-23T22:34:38.336Z,23.53
2023-02-23T22:37:21.987Z,23.47
2023-02-23T22:39:52.237Z,23.45
2023-02-23T22:42:22.273Z,23.42
2023-02-23T22:44:55.324Z,23.40
2023-02-23T22:47:28.612Z,23.35
2023-02-23T22:49:59.866Z,23.43
2023-02-23T22:52:32.691Z,23.46
2023-02-23T22:55:01.323Z,23.42
2023-02-23T22:57:37.224Z,23.41
2023-02-23T23:00:08.392Z,23.40
2023-02-23T23:02:40.758Z,23.43
2023-02-23T23:05:11.759Z,23.37
2023-02-23T23:07:48.872Z,23.40
2023-02-23T23:10:35.308Z,23.43
2023-02-23T23:13:05.186Z,23.49
2023-02-23T23:15:39.183Z,23.50
2023-02-23T23:18:09.779Z,23.61
2023-02-23T23:20:43.906Z,23.62
2023-02-23T23:23:17.253Z,23.64
2023-02-23T23:25:48.946Z,23.75
2023-02-23T23:28:24.280Z,23.66
2023-02-23T23:30:57.689Z,23.64
2023-02-23T23:33:27.294Z,23.66
2023-02-23T23:36:03.405Z,23.66
2023-02-23T23:38:38.606Z,23.67
2023-02-23T23:41:15.350Z,23.60
2023-02-23T23:43:51.565Z,23.62
2023-02-23T23:46:29.874Z,23.69
2023-02-23T23:49:08.248Z,23.77
2023-02-23T23:51:44.777Z,23.66
2023-02-23T23:54:22.908Z,23.56
2023-02-23T23:56:56.116Z,23.48
2023-02-23T23:59:26.757Z,23.48
